Time;durP1;ratioP1;P1;durP2;ratioP2;P2;SDS_P1;SDS_P2;PMS_P1;PMS_P2;Temp;Humidity;BMP_temperature;BMP_pressure;BME280_temperature;BME280_humidity;BME280_pressure;Samples;Min_cycle;Max_cycle;Signal;HPM_P1;HPM_P2
2023/04/21 00:00:01;;;;;;;15.90;11.95;;;15.40;84.00;;;;;;5055137;28;20040;-80
2023/04/21 00:02:26;;;;;;;21.23;12.32;;;15.40;84.10;;;;;;5055031;28;20376;-80
2023/04/21 00:04:55;;;;;;;20.83;13.65;;;15.30;84.00;;;;;;5054792;28;20041;-81
2023/04/21 00:07:21;;;;;;;23.98;13.93;;;15.30;84.10;;;;;;5054956;28;20024;-81
2023/04/21 00:09:47;;;;;;;18.88;14.32;;;15.30;84.30;;;;;;5054299;28;20380;-81
2023/04/21 00:12:12;;;;;;;22.25;14.45;;;15.20;84.40;;;;;;5054890;28;20036;-80
2023/04/21 00:14:38;;;;;;;18.23;13.93;;;15.20;84.50;;;;;;5054620;28;20053;-80
2023/04/21 00:17:05;;;;;;;17.85;13.73;;;15.10;84.50;;;;;;5054736;28;20490;-78
2023/04/21 00:19:31;;;;;;;18.98;12.77;;;15.10;84.50;;;;;;5058988;28;20051;-79
2023/04/21 00:22:00;;;;;;;17.85;12.68;;;15.10;84.70;;;;;;5074572;28;20025;-80
2023/04/21 00:24:26;;;;;;;20.55;13.07;;;15.00;85.10;;;;;;5074796;28;20495;-79
2023/04/21 00:26:51;;;;;;;18.38;12.57;;;15.00;85.00;;;;;;5074525;28;20056;-80
2023/04/21 00:29:17;;;;;;;22.95;12.82;;;15.00;85.10;;;;;;5056949;28;20386;-80
2023/04/21 00:31:43;;;;;;;17.33;12.05;;;15.00;85.10;;;;;;5077883;28;20540;-80
2023/04/21 00:34:09;;;;;;;18.42;12.30;;;15.00;85.20;;;;;;5076646;28;20182;-79
2023/04/21 00:36:35;;;;;;;15.43;12.02;;;14.90;85.40;;;;;;5074635;28;20486;-81
2023/04/21 00:39:00;;;;;;;15.45;12.35;;;14.90;85.50;;;;;;5073885;28;20090;-79
2023/04/21 00:41:28;;;;;;;19.38;12.10;;;14.90;85.70;;;;;;5074043;28;20028;-79
2023/04/21 00:44:07;;;;;;;16.40;12.05;;;15.00;85.70;;;;;;5074020;28;20036;-80
2023/04/21 00:46:34;;;;;;;17.38;12.35;;;15.00;85.90;;;;;;5073887;28;20033;-79
2023/04/21 00:49:03;;;;;;;17.08;12.90;;;15.00;86.10;;;;;;5074029;28;20048;-79
2023/04/21 00:51:30;;;;;;;16.83;12.73;;;15.00;85.90;;;;;;5073662;28;20036;-79
2023/04/21 00:53:56;;;;;;;21.08;14.07;;;15.00;85.90;;;;;;5073688;28;20025;-80
2023/04/21 00:56:22;;;;;;;19.60;12.90;;;15.00;86.20;;;;;;5073754;28;20033;-80
2023/04/21 00:58:49;;;;;;;17.85;14.10;;;15.00;86.20;;;;;;5073704;28;20577;-79
2023/04/21 01:01:16;;;;;;;18.33;13.85;;;14.90;86.50;;;;;;5073660;28;20112;-79
2023/04/21 01:03:42;;;;;;;20.40;14.55;;;14.90;86.40;;;;;;5072645;28;20132;-81
2023/04/21 01:06:08;;;;;;;17.50;13.77;;;14.80;86.70;;;;;;5073680;28;20034;-80
2023/04/21 01:08:35;;;;;;;19.77;14.65;;;14.70;87.50;;;;;;5055689;28;20094;-79
2023/04/21 01:11:09;;;;;;;19.58;13.35;;;14.70;87.60;;;;;;5073553;28;20040;-79
2023/04/21 01:13:35;;;;;;;18.60;13.77;;;14.70;87.80;;;;;;5073263;28;20029;-79
2023/04/21 01:16:01;;;;;;;19.20;14.13;;;14.60;87.70;;;;;;5073213;28;20040;-80
2023/04/21 01:18:26;;;;;;;21.90;14.35;;;14.60;88.00;;;;;;5073192;28;20052;-80
2023/04/21 01:20:52;;;;;;;18.58;13.07;;;14.60;88.10;;;;;;5073804;28;20485;-80
2023/04/21 01:23:19;;;;;;;17.13;13.30;;;14.60;88.00;;;;;;5055175;28;20029;-80
2023/04/21 01:25:46;;;;;;;19.60;13.75;;;14.60;88.00;;;;;;5073090;28;20044;-80
2023/04/21 01:28:12;;;;;;;18.63;12.18;;;14.60;88.10;;;;;;5073000;28;20029;-80
2023/04/21 01:30:37;;;;;;;19.88;13.50;;;14.50;88.00;;;;;;5073105;28;20032;-80
2023/04/21 01:33:03;;;;;;;18.42;12.95;;;14.50;88.10;;;;;;5073041;28;20050;-81
2023/04/21 01:35:29;;;;;;;17.92;12.52;;;14.50;88.20;;;;;;5072908;28;20037;-79
2023/04/21 01:37:55;;;;;;;19.25;12.88;;;14.40;88.10;;;;;;5072942;28;20056;-77
2023/04/21 01:40:21;;;;;;;18.48;12.95;;;14.40;88.10;;;;;;5072710;28;20044;-80
2023/04/21 01:42:46;;;;;;;18.63;13.73;;;14.40;88.10;;;;;;5072644;28;20060;-80
2023/04/21 01:45:12;;;;;;;20.58;13.70;;;14.30;88.10;;;;;;5072817;28;20038;-80
2023/04/21 01:47:38;;;;;;;18.45;13.07;;;14.20;88.20;;;;;;5073535;28;20059;-80
2023/04/21 01:50:04;;;;;;;16.83;12.82;;;14.20;88.20;;;;;;5072891;28;20111;-80
2023/04/21 01:52:30;;;;;;;21.98;13.52;;;14.30;88.50;;;;;;5072627;28;20020;-80
2023/04/21 01:54:55;;;;;;;16.75;12.55;;;14.30;88.50;;;;;;5072492;28;20043;-80
2023/04/21 01:57:21;;;;;;;17.10;13.45;;;14.30;88.30;;;;;;5054425;28;20028;-78
2023/04/21 01:59:48;;;;;;;18.52;12.18;;;14.30;88.20;;;;;;5054439;28;20039;-82
2023/04/21 02:02:14;;;;;;;18.33;13.15;;;14.30;88.30;;;;;;5072543;28;20486;-79
2023/04/21 02:04:39;;;;;;;17.05;12.68;;;14.30;88.40;;;;;;5072277;28;20068;-81
2023/04/21 02:07:05;;;;;;;17.30;13.65;;;14.30;88.40;;;;;;5072436;28;20493;-80
2023/04/21 02:09:31;;;;;;;17.15;12.27;;;14.20;88.40;;;;;;5072652;28;20103;-81
2023/04/21 02:11:57;;;;;;;16.40;13.32;;;14.20;88.60;;;;;;5073757;28;20047;-81
2023/04/21 02:14:23;;;;;;;15.98;13.55;;;14.20;88.70;;;;;;5073594;28;20025;-79
2023/04/21 02:16:49;;;;;;;19.85;13.98;;;14.10;88.70;;;;;;5073147;28;20493;-80
2023/04/21 02:19:15;;;;;;;17.05;13.23;;;14.10;89.10;;;;;;5072599;28;20052;-81
2023/04/21 02:21:40;;;;;;;18.40;14.07;;;14.10;89.20;;;;;;5073991;28;20067;-80
2023/04/21 02:24:06;;;;;;;18.48;13.85;;;14.10;89.40;;;;;;5056302;28;20040;-81
2023/04/21 02:26:32;;;;;;;17.33;13.68;;;14.10;89.30;;;;;;5083775;28;20016;-80
2023/04/21 02:28:57;;;;;;;17.70;12.88;;;14.10;89.40;;;;;;5088678;28;20070;-79
2023/04/21 02:31:23;;;;;;;17.95;13.20;;;14.10;89.10;;;;;;5075172;28;20385;-80
2023/04/21 02:33:49;;;;;;;15.60;12.68;;;14.10;89.30;;;;;;5073166;28;20024;-80
2023/04/21 02:36:14;;;;;;;15.98;12.50;;;14.00;89.20;;;;;;5072495;28;20040;-79
2023/04/21 02:38:40;;;;;;;17.23;12.43;;;14.00;89.10;;;;;;5071899;28;20040;-80
2023/04/21 02:41:06;;;;;;;16.13;12.55;;;14.00;89.00;;;;;;5071950;28;20033;-80
2023/04/21 02:43:31;;;;;;;18.08;12.63;;;14.00;89.00;;;;;;5072242;28;20031;-80
2023/04/21 02:45:57;;;;;;;19.65;12.90;;;13.90;88.90;;;;;;5072652;28;20043;-78
2023/04/21 02:48:23;;;;;;;21.92;12.23;;;13.80;89.20;;;;;;5072450;28;20028;-80
2023/04/21 02:50:49;;;;;;;15.93;12.38;;;13.80;89.50;;;;;;5072077;28;20040;-80
2023/04/21 02:53:15;;;;;;;15.15;12.00;;;13.80;89.40;;;;;;5072080;28;20115;-80
2023/04/21 02:55:41;;;;;;;15.73;12.20;;;13.80;89.30;;;;;;5054046;28;20025;-80
2023/04/21 02:58:07;;;;;;;15.82;12.13;;;13.80;89.60;;;;;;5072175;28;20041;-80
2023/04/21 03:00:33;;;;;;;18.25;13.18;;;13.80;89.50;;;;;;5072110;28;20104;-79
2023/04/21 03:02:58;;;;;;;17.38;13.13;;;13.80;89.50;;;;;;5071912;28;20024;-79
2023/04/21 03:05:24;;;;;;;17.27;13.35;;;13.70;89.40;;;;;;5072244;28;20117;-79
2023/04/21 03:07:50;;;;;;;16.15;13.13;;;13.70;89.30;;;;;;5072027;28;20042;-80
2023/04/21 03:10:16;;;;;;;16.45;12.88;;;13.70;89.30;;;;;;5071893;28;20033;-79
2023/04/21 03:12:41;;;;;;;18.35;12.55;;;13.60;89.30;;;;;;5072109;28;20115;-79
2023/04/21 03:15:07;;;;;;;16.20;12.13;;;13.60;89.30;;;;;;5072144;28;20147;-78
2023/04/21 03:17:33;;;;;;;15.25;10.90;;;13.60;89.70;;;;;;5072119;28;20120;-80
2023/04/21 03:19:58;;;;;;;13.75;11.45;;;13.60;89.60;;;;;;5072214;28;20107;-79
2023/04/21 03:22:24;;;;;;;17.02;12.35;;;13.60;89.80;;;;;;5071841;28;20031;-80
2023/04/21 03:24:50;;;;;;;15.13;11.77;;;13.60;89.70;;;;;;5071615;28;20063;-79
2023/04/21 03:27:16;;;;;;;15.50;12.38;;;13.60;89.80;;;;;;5073136;28;20068;-79
2023/04/21 03:29:41;;;;;;;17.83;11.60;;;13.50;89.70;;;;;;5075509;28;20070;-81
2023/04/21 03:32:07;;;;;;;18.33;11.50;;;13.50;89.60;;;;;;5057542;28;20501;-80
2023/04/21 03:34:33;;;;;;;15.85;11.15;;;13.50;89.60;;;;;;5075409;28;20493;-80
2023/04/21 03:36:58;;;;;;;16.60;11.48;;;13.50;89.80;;;;;;5075311;28;20103;-81
2023/04/21 03:39:24;;;;;;;14.48;11.27;;;13.50;89.70;;;;;;5075150;28;20139;-79
2023/04/21 03:41:50;;;;;;;14.50;10.80;;;13.50;89.80;;;;;;5077640;28;20032;-79
2023/04/21 03:44:15;;;;;;;14.90;10.68;;;13.50;89.80;;;;;;5080493;28;20086;-80
2023/04/21 03:46:41;;;;;;;15.60;10.85;;;13.50;89.60;;;;;;5079154;28;20377;-79
2023/04/21 03:49:07;;;;;;;15.07;10.35;;;13.50;89.70;;;;;;5063808;28;20028;-79
2023/04/21 03:51:33;;;;;;;16.08;11.85;;;13.50;89.70;;;;;;5086617;28;20095;-79
2023/04/21 03:53:58;;;;;;;14.40;10.55;;;13.40;89.60;;;;;;5082933;28;20056;-79
2023/04/21 03:56:24;;;;;;;13.35;10.25;;;13.40;89.80;;;;;;5084940;28;20032;-80
2023/04/21 03:58:50;;;;;;;14.65;10.80;;;13.40;89.70;;;;;;5082650;28;20041;-81
2023/04/21 04:01:15;;;;;;;14.27;10.00;;;13.50;89.70;;;;;;5082008;28;20033;-81
2023/04/21 04:03:41;;;;;;;14.43;10.82;;;13.50;89.40;;;;;;5075533;28;20489;-80
2023/04/21 04:06:07;;;;;;;13.35;9.77;;;13.50;89.40;;;;;;5074957;28;20021;-80
2023/04/21 04:08:32;;;;;;;15.70;9.38;;;13.50;89.30;;;;;;5075253;28;20033;-78
2023/04/21 04:10:58;;;;;;;17.92;10.50;;;13.40;89.20;;;;;;5075301;28;20059;-79
2023/04/21 04:13:25;;;;;;;14.85;10.15;;;13.40;89.20;;;;;;5074743;28;20044;-79
2023/04/21 04:15:51;;;;;;;14.40;9.57;;;13.50;89.50;;;;;;5074798;28;20070;-80
2023/04/21 04:18:17;;;;;;;13.80;10.02;;;13.40;89.30;;;;;;5074927;28;20032;-79
2023/04/21 04:20:42;;;;;;;14.52;10.32;;;13.40;89.40;;;;;;5077283;28;20399;-79
2023/04/21 04:23:08;;;;;;;15.88;9.95;;;13.40;89.50;;;;;;5078087;28;20032;-80
2023/04/21 04:25:34;;;;;;;13.27;10.18;;;13.30;89.50;;;;;;5077301;28;20029;-80
2023/04/21 04:27:59;;;;;;;12.80;10.43;;;13.20;89.60;;;;;;5077010;28;20043;-79
2023/04/21 04:30:28;;;;;;;14.73;10.52;;;13.20;89.80;;;;;;5075309;28;20060;-79
2023/04/21 04:32:54;;;;;;;12.55;9.95;;;13.20;89.70;;;;;;5074883;28;20043;-80
2023/04/21 04:35:20;;;;;;;21.60;10.45;;;13.20;90.00;;;;;;5074974;28;20029;-81
2023/04/21 04:37:45;;;;;;;12.10;10.02;;;13.30;90.00;;;;;;5074053;28;20040;-81
2023/04/21 04:40:11;;;;;;;15.48;10.95;;;13.30;89.90;;;;;;5074326;28;20152;-79
2023/04/21 04:42:38;;;;;;;14.57;10.43;;;13.30;89.70;;;;;;5075152;28;20040;-78
2023/04/21 04:45:07;;;;;;;13.70;10.77;;;13.30;89.70;;;;;;5075006;28;20074;-80
2023/04/21 04:47:36;;;;;;;15.02;10.50;;;13.30;89.80;;;;;;5074800;28;20474;-81
2023/04/21 04:50:02;;;;;;;15.88;11.13;;;13.30;89.60;;;;;;5074448;28;20040;-80
2023/04/21 04:52:28;;;;;;;16.23;10.80;;;13.20;90.00;;;;;;5056341;28;20146;-80
2023/04/21 04:54:54;;;;;;;13.77;10.68;;;13.20;90.00;;;;;;5074360;28;20098;-80
2023/04/21 04:57:19;;;;;;;13.52;9.95;;;13.10;90.10;;;;;;5073873;28;20067;-80
2023/04/21 04:59:45;;;;;;;15.13;11.30;;;13.10;90.10;;;;;;5055836;28;20079;-81
2023/04/21 05:02:11;;;;;;;15.48;11.55;;;13.10;90.10;;;;;;5055751;28;20040;-80
2023/04/21 05:04:37;;;;;;;16.08;11.75;;;13.10;90.10;;;;;;5073851;28;20493;-81
2023/04/21 05:07:05;;;;;;;14.18;11.20;;;13.10;90.10;;;;;;5074556;28;20036;-81
2023/04/21 05:09:30;;;;;;;15.85;11.18;;;13.10;90.20;;;;;;5074787;28;20055;-79
2023/04/21 05:11:56;;;;;;;12.95;10.93;;;13.10;90.10;;;;;;5073948;28;20470;-79
2023/04/21 05:14:22;;;;;;;14.88;11.05;;;13.10;90.10;;;;;;5074230;28;20103;-80
2023/04/21 05:16:47;;;;;;;15.05;10.60;;;13.20;90.10;;;;;;5073664;28;20440;-80
2023/04/21 05:19:13;;;;;;;13.27;9.82;;;13.20;90.10;;;;;;5074090;28;20064;-81
2023/04/21 05:21:39;;;;;;;12.88;10.32;;;13.20;90.10;;;;;;5074618;28;20162;-81
2023/04/21 05:24:04;;;;;;;13.23;9.68;;;13.30;90.10;;;;;;5073309;28;20032;-80
2023/04/21 05:26:30;;;;;;;12.77;9.52;;;13.30;89.60;;;;;;5072977;28;20490;-80
2023/04/21 05:28:57;;;;;;;12.13;9.65;;;13.40;89.60;;;;;;5073192;28;20021;-78
2023/04/21 05:31:25;;;;;;;13.50;9.52;;;13.40;89.50;;;;;;5073151;28;20033;-81
2023/04/21 05:33:51;;;;;;;14.88;9.88;;;13.40;89.40;;;;;;5073380;28;20066;-82
2023/04/21 05:36:19;;;;;;;13.07;9.65;;;13.50;89.30;;;;;;5073182;28;20555;-80
2023/04/21 05:38:45;;;;;;;12.20;9.68;;;13.60;89.30;;;;;;5055273;28;20128;-81
2023/04/21 05:41:10;;;;;;;12.82;10.02;;;13.70;89.00;;;;;;5073318;28;20485;-80
2023/04/21 05:43:36;;;;;;;13.77;10.23;;;13.90;88.80;;;;;;5073204;28;20043;-80
2023/04/21 05:46:07;;;;;;;13.48;10.43;;;14.00;88.00;;;;;;5072650;28;20032;-78
2023/04/21 05:48:33;;;;;;;16.80;9.50;;;14.20;87.60;;;;;;5072721;28;20055;-80
2023/04/21 05:51:10;;;;;;;12.60;9.00;;;14.30;86.40;;;;;;5071909;28;20489;-79
2023/04/21 05:53:40;;;;;;;14.00;8.95;;;14.50;86.40;;;;;;5073776;28;20096;-79
2023/04/21 05:56:08;;;;;;;12.50;8.90;;;14.80;85.80;;;;;;5072326;28;20033;-81
2023/04/21 05:58:34;;;;;;;12.52;8.90;;;15.00;84.90;;;;;;5072207;28;20520;-79
2023/04/21 06:01:00;;;;;;;11.93;9.10;;;15.10;83.70;;;;;;5072294;28;20116;-80
2023/04/21 06:03:26;;;;;;;18.42;9.57;;;15.20;83.10;;;;;;5071944;28;20071;-79
2023/04/21 06:05:55;;;;;;;14.75;8.63;;;15.30;83.00;;;;;;5055237;28;20469;-79
2023/04/21 06:08:21;;;;;;;17.00;9.43;;;15.40;82.60;;;;;;5075894;28;20029;-79
2023/04/21 06:10:47;;;;;;;12.20;9.13;;;15.60;82.20;;;;;;5076343;28;20040;-82
2023/04/21 06:13:13;;;;;;;16.55;9.65;;;15.80;82.00;;;;;;5072440;28;20034;-80
2023/04/21 06:15:39;;;;;;;12.68;8.55;;;16.00;81.40;;;;;;5071579;28;20143;-79
2023/04/21 06:18:04;;;;;;;13.60;8.38;;;16.20;81.20;;;;;;5072101;28;20055;-78
2023/04/21 06:20:30;;;;;;;13.75;8.40;;;16.20;80.20;;;;;;5072318;28;20108;-80
2023/04/21 06:22:56;;;;;;;12.30;8.57;;;16.30;79.90;;;;;;5071938;28;20028;-79
2023/04/21 06:25:21;;;;;;;10.15;7.40;;;16.40;79.50;;;;;;5071810;28;20028;-78
2023/04/21 06:27:47;;;;;;;11.68;7.63;;;16.60;78.90;;;;;;5074544;28;20110;-80
2023/04/21 06:30:13;;;;;;;10.65;7.10;;;16.70;78.50;;;;;;5057175;28;20041;-80
2023/04/21 06:32:39;;;;;;;12.35;8.15;;;16.90;77.80;;;;;;5071971;28;20036;-80
2023/04/21 06:35:05;;;;;;;10.90;7.28;;;17.10;77.30;;;;;;5053804;28;20503;-80
2023/04/21 06:37:31;;;;;;;10.77;7.25;;;17.20;76.60;;;;;;5072259;28;20119;-81
2023/04/21 06:39:57;;;;;;;12.85;6.68;;;17.30;76.20;;;;;;5071670;28;20532;-78
2023/04/21 06:42:22;;;;;;;9.57;6.43;;;17.40;75.80;;;;;;5072032;28;20115;-79
2023/04/21 06:44:48;;;;;;;14.73;7.10;;;17.50;75.20;;;;;;5071838;28;20560;-80
2023/04/21 06:47:15;;;;;;;15.25;7.80;;;17.60;74.80;;;;;;5072683;28;20374;-80
2023/04/21 06:49:41;;;;;;;13.23;7.88;;;17.70;74.40;;;;;;5071607;28;20120;-79
2023/04/21 06:52:07;;;;;;;12.48;6.80;;;17.70;73.80;;;;;;5071410;28;20137;-80
2023/04/21 06:54:32;;;;;;;12.77;6.53;;;17.90;73.90;;;;;;5071548;28;20498;-79
2023/04/21 06:56:58;;;;;;;10.80;6.35;;;17.90;73.00;;;;;;5054117;28;20060;-80
2023/04/21 06:59:24;;;;;;;9.63;6.72;;;18.00;72.80;;;;;;5071498;28;20378;-78
2023/04/21 07:01:51;;;;;;;11.60;7.60;;;18.00;72.50;;;;;;5072082;28;20063;-79
2023/04/21 07:04:17;;;;;;;11.88;7.03;;;18.20;72.20;;;;;;5075930;28;20116;-79
2023/04/21 07:06:43;;;;;;;11.48;6.95;;;18.40;72.00;;;;;;5076480;28;20086;-79
2023/04/21 07:09:09;;;;;;;13.82;6.50;;;18.40;71.20;;;;;;5076165;28;20036;-78
2023/04/21 07:11:35;;;;;;;10.55;6.57;;;18.50;71.10;;;;;;5076211;28;20433;-79
2023/04/21 07:14:01;;;;;;;11.68;6.63;;;18.50;70.90;;;;;;5057986;28;20025;-81
2023/04/21 07:16:27;;;;;;;9.73;5.70;;;18.50;70.60;;;;;;5076098;28;20440;-79
2023/04/21 07:18:53;;;;;;;10.40;5.97;;;18.60;70.80;;;;;;5075910;28;20037;-79
2023/04/21 07:21:19;;;;;;;8.85;5.50;;;18.60;69.90;;;;;;5075824;28;20081;-80
2023/04/21 07:23:44;;;;;;;12.10;6.28;;;18.60;69.70;;;;;;5075386;28;20035;-80
2023/04/21 07:26:10;;;;;;;10.45;5.40;;;18.70;69.80;;;;;;5075379;28;20032;-80
2023/04/21 07:28:39;;;;;;;13.13;5.55;;;18.70;69.20;;;;;;5075384;28;20032;-80
2023/04/21 07:31:04;;;;;;;47.03;10.85;;;18.90;69.40;;;;;;5076432;28;20029;-79
2023/04/21 07:33:30;;;;;;;16.33;7.38;;;19.00;69.00;;;;;;5078189;28;20037;-81
2023/04/21 07:35:56;;;;;;;15.23;5.93;;;19.10;69.10;;;;;;5076367;28;20033;-78
2023/04/21 07:38:21;;;;;;;9.13;5.60;;;19.20;68.60;;;;;;5076292;28;20044;-80
2023/04/21 07:40:47;;;;;;;8.05;5.38;;;19.20;67.90;;;;;;5075669;28;20048;-80
2023/04/21 07:43:13;;;;;;;8.68;5.57;;;19.00;67.70;;;;;;5075859;28;20037;-81
2023/04/21 07:45:39;;;;;;;8.77;5.45;;;19.00;67.70;;;;;;5075860;28;20075;-80
2023/04/21 07:48:05;;;;;;;10.43;6.13;;;19.00;68.00;;;;;;5075817;28;20120;-79
2023/04/21 07:50:31;;;;;;;10.20;5.50;;;19.10;68.00;;;;;;5075777;28;20039;-78
2023/04/21 07:52:57;;;;;;;12.52;5.32;;;19.10;68.00;;;;;;5075494;28;20044;-80
2023/04/21 07:55:23;;;;;;;19.05;7.53;;;19.30;68.30;;;;;;5075779;28;20058;-75
2023/04/21 07:57:49;;;;;;;12.48;5.78;;;19.40;67.80;;;;;;5057092;28;20554;-79
2023/04/21 08:00:15;;;;;;;11.55;6.00;;;19.30;67.00;;;;;;5075192;28;20033;-80
2023/04/21 08:02:41;;;;;;;10.52;5.90;;;19.30;67.20;;;;;;5075325;28;20090;-81
2023/04/21 08:05:07;;;;;;;12.98;6.10;;;19.30;67.10;;;;;;5075366;28;20033;-80
2023/04/21 08:07:32;;;;;;;13.75;6.25;;;19.30;67.10;;;;;;5075300;28;20541;-79
2023/04/21 08:09:59;;;;;;;14.25;5.95;;;19.30;67.00;;;;;;5075452;28;20101;-79
2023/04/21 08:12:25;;;;;;;11.23;6.90;;;19.20;66.60;;;;;;5074522;28;20056;-79
2023/04/21 08:14:51;;;;;;;9.50;6.20;;;19.10;66.60;;;;;;5075274;28;20105;-79
2023/04/21 08:17:17;;;;;;;10.27;5.72;;;19.20;67.20;;;;;;5056992;28;20033;-80
2023/04/21 08:19:42;;;;;;;9.88;5.50;;;19.20;66.80;;;;;;5075082;28;20063;-82
2023/04/21 08:22:08;;;;;;;12.30;5.85;;;19.20;66.70;;;;;;5075586;28;20027;-79
2023/04/21 08:24:34;;;;;;;9.70;5.95;;;19.10;66.20;;;;;;5075181;28;20032;-80
2023/04/21 08:27:01;;;;;;;11.25;5.63;;;19.10;66.60;;;;;;5076086;28;20108;-78
2023/04/21 08:29:27;;;;;;;9.65;5.55;;;19.10;66.60;;;;;;5075547;28;20029;-80
2023/04/21 08:31:53;;;;;;;8.13;5.20;;;19.10;66.30;;;;;;5074897;28;20029;-79
2023/04/21 08:34:18;;;;;;;11.10;5.90;;;19.10;66.20;;;;;;5076216;28;20032;-80
2023/04/21 08:36:46;;;;;;;6.93;5.05;;;19.20;66.10;;;;;;5076193;28;20379;-78
2023/04/21 08:39:15;;;;;;;12.20;5.22;;;19.20;65.90;;;;;;5063938;28;20075;-79
2023/04/21 08:41:41;;;;;;;8.30;5.75;;;19.20;65.50;;;;;;5078217;28;20553;-80
2023/04/21 08:44:14;;;;;;;8.30;4.82;;;19.20;65.50;;;;;;5076269;28;20202;-81
2023/04/21 08:46:40;;;;;;;9.15;5.22;;;19.40;65.80;;;;;;5059603;28;20028;-80
2023/04/21 08:49:08;;;;;;;7.95;4.60;;;19.40;65.10;;;;;;5059664;28;20132;-80
2023/04/21 08:51:34;;;;;;;7.38;5.07;;;19.50;64.50;;;;;;5078735;28;20040;-81
2023/04/21 08:54:00;;;;;;;10.30;5.40;;;19.60;64.40;;;;;;5077533;28;20080;-81
2023/04/21 08:56:26;;;;;;;7.40;5.22;;;19.60;63.80;;;;;;5056998;28;20366;-78
2023/04/21 08:58:53;;;;;;;8.07;4.63;;;19.70;63.50;;;;;;5073690;28;20041;-80
2023/04/21 09:01:19;;;;;;;8.48;4.35;;;19.60;62.30;;;;;;5076517;28;20412;-79
2023/04/21 09:03:44;;;;;;;7.53;4.70;;;19.60;61.70;;;;;;5075266;28;20104;-79
2023/04/21 09:06:13;;;;;;;10.02;4.45;;;19.60;61.80;;;;;;5074644;28;20039;-80
2023/04/21 09:08:43;;;;;;;7.70;4.45;;;19.70;61.90;;;;;;5074447;28;20513;-80
2023/04/21 09:11:13;;;;;;;7.32;4.75;;;19.80;61.10;;;;;;5075142;28;20032;-81
2023/04/21 09:13:41;;;;;;;7.30;4.80;;;19.80;60.80;;;;;;5074609;28;20028;-80
2023/04/21 09:16:19;;;;;;;7.35;4.78;;;19.80;60.60;;;;;;5073949;28;20029;-79
2023/04/21 09:18:45;;;;;;;10.15;6.13;;;19.80;60.70;;;;;;5055304;28;20074;-80
2023/04/21 09:21:16;;;;;;;11.27;5.60;;;19.90;60.70;;;;;;5073907;28;20087;-78
2023/04/21 09:23:54;;;;;;;9.77;6.03;;;19.90;61.10;;;;;;5054936;28;20032;-80
2023/04/21 09:26:24;;;;;;;8.90;5.35;;;20.00;60.50;;;;;;5072822;28;20072;-81
2023/04/21 09:28:51;;;;;;;7.38;4.80;;;20.00;60.40;;;;;;5073668;28;20036;-80
2023/04/21 09:31:18;;;;;;;9.95;5.38;;;20.00;60.30;;;;;;5072808;28;20080;-80
2023/04/21 09:33:56;;;;;;;7.93;5.20;;;20.00;60.20;;;;;;5075798;28;20119;-78
2023/04/21 09:36:25;;;;;;;7.47;5.25;;;20.10;59.80;;;;;;5059954;28;20086;-81
2023/04/21 09:38:53;;;;;;;7.10;5.43;;;20.10;59.60;;;;;;5074163;28;20137;-80
2023/04/21 09:41:20;;;;;;;7.03;4.80;;;20.10;59.30;;;;;;5074518;28;20086;-79
2023/04/21 09:43:47;;;;;;;10.55;5.35;;;20.10;59.00;;;;;;5057130;28;20037;-82
2023/04/21 09:46:15;;;;;;;11.20;5.65;;;20.10;59.10;;;;;;5074075;28;20033;-80
2023/04/21 09:48:44;;;;;;;11.43;5.95;;;20.20;59.20;;;;;;5073902;28;20055;-80
2023/04/21 09:51:15;;;;;;;10.45;5.25;;;20.30;59.10;;;;;;5055656;28;20071;-81
2023/04/21 09:53:41;;;;;;;9.50;4.85;;;20.40;59.00;;;;;;5073158;28;20036;-80
2023/04/21 09:56:12;;;;;;;8.70;5.50;;;20.50;58.90;;;;;;5074514;28;20440;-81
2023/04/21 09:58:52;;;;;;;11.75;5.30;;;20.50;58.60;;;;;;5073218;28;20116;-79
2023/04/21 10:01:19;;;;;;;6.80;4.90;;;20.60;58.50;;;;;;5072966;28;20093;-81
2023/04/21 10:03:47;;;;;;;12.50;5.43;;;20.60;58.30;;;;;;5073081;28;20037;-79
2023/04/21 10:06:13;;;;;;;15.07;5.55;;;20.60;58.00;;;;;;5074458;28;20036;-80
2023/04/21 10:08:39;;;;;;;9.70;4.95;;;20.60;57.90;;;;;;5073500;28;20039;-81
2023/04/21 10:11:06;;;;;;;14.48;5.60;;;20.70;57.80;;;;;;5055102;28;20490;-81
2023/04/21 10:13:32;;;;;;;9.52;6.85;;;20.80;57.80;;;;;;5072898;28;20024;-80
2023/04/21 10:16:06;;;;;;;11.02;5.97;;;20.90;58.00;;;;;;5073021;28;20402;-79
2023/04/21 10:18:37;;;;;;;8.02;5.70;;;20.90;57.70;;;;;;5054418;28;20405;-80
2023/04/21 10:21:11;;;;;;;8.50;5.18;;;21.10;57.60;;;;;;5058932;28;20068;-81
2023/04/21 10:23:41;;;;;;;8.60;5.30;;;21.20;57.30;;;;;;5078345;28;20025;-80
2023/04/21 10:26:15;;;;;;;6.53;4.65;;;21.30;57.00;;;;;;5073907;28;20516;-80
2023/04/21 10:28:42;;;;;;;10.15;4.72;;;21.40;57.00;;;;;;5074650;28;20029;-79
2023/04/21 10:31:29;;;;;;;8.25;5.78;;;21.40;56.30;;;;;;5077842;28;20041;-81
2023/04/21 10:34:07;;;;;;;8.68;5.07;;;21.40;55.70;;;;;;5082900;28;20455;-79
2023/04/21 10:36:34;;;;;;;8.25;4.78;;;21.40;55.90;;;;;;5083024;28;20478;-80
2023/04/21 10:39:05;;;;;;;7.18;4.80;;;21.40;56.80;;;;;;5079666;28;20048;-81
2023/04/21 10:41:35;;;;;;;7.68;4.80;;;21.60;55.90;;;;;;5076877;28;20056;-80
2023/04/21 10:44:14;;;;;;;6.43;4.40;;;21.70;55.60;;;;;;5074220;28;20028;-80
2023/04/21 10:46:45;;;;;;;7.53;4.85;;;21.80;54.80;;;;;;5072700;28;20057;-81
2023/04/21 10:49:31;;;;;;;6.90;4.75;;;21.90;55.10;;;;;;5054965;28;20075;-81
2023/04/21 10:51:57;;;;;;;10.35;5.20;;;21.90;54.90;;;;;;5073407;28;20490;-81
2023/04/21 10:54:27;;;;;;;12.02;4.88;;;22.00;54.90;;;;;;5073862;28;20040;-82
2023/04/21 10:56:54;;;;;;;7.25;5.10;;;22.00;54.80;;;;;;5072806;28;20028;-80
2023/04/21 10:59:20;;;;;;;8.73;4.80;;;22.10;54.90;;;;;;5072923;28;20048;-80
2023/04/21 11:01:46;;;;;;;9.02;4.60;;;22.20;54.70;;;;;;5072741;28;20494;-80
2023/04/21 11:04:16;;;;;;;6.75;4.43;;;22.30;53.90;;;;;;5073013;28;20401;-81
2023/04/21 11:06:42;;;;;;;7.57;4.45;;;22.30;53.30;;;;;;5072775;28;20029;-80
2023/04/21 11:09:08;;;;;;;6.97;4.63;;;22.40;53.30;;;;;;5054938;28;20051;-79
2023/04/21 11:11:35;;;;;;;9.23;4.13;;;22.50;53.00;;;;;;5073202;28;20032;-80
2023/04/21 11:14:02;;;;;;;7.95;4.03;;;22.60;52.90;;;;;;5072721;28;20035;-81
2023/04/21 11:16:27;;;;;;;6.60;4.10;;;22.80;53.00;;;;;;5072680;28;20458;-80
2023/04/21 11:18:55;;;;;;;7.97;4.20;;;22.90;52.60;;;;;;5071614;28;20085;-80
2023/04/21 11:21:23;;;;;;;7.53;4.60;;;22.90;51.70;;;;;;5037926;28;20043;-80
2023/04/21 11:23:54;;;;;;;7.10;4.50;;;23.00;52.00;;;;;;5072083;28;20041;-80
2023/04/21 11:26:34;;;;;;;7.70;4.10;;;23.10;51.80;;;;;;5071780;28;20047;-78
2023/04/21 11:29:02;;;;;;;7.95;4.55;;;23.20;52.00;;;;;;5071885;28;20036;-81
2023/04/21 11:31:29;;;;;;;8.55;4.30;;;23.30;51.90;;;;;;5071657;28;20029;-80
2023/04/21 11:33:54;;;;;;;7.63;4.35;;;23.40;51.80;;;;;;5053625;28;20032;-80
2023/04/21 11:36:23;;;;;;;5.53;3.80;;;23.40;51.80;;;;;;5071445;28;20459;-79
2023/04/21 11:38:49;;;;;;;9.80;4.35;;;23.30;51.40;;;;;;5071369;28;20057;-82
2023/04/21 11:41:22;;;;;;;9.27;4.25;;;23.30;51.30;;;;;;5071672;28;20032;-80
2023/04/21 11:43:49;;;;;;;6.45;3.95;;;23.30;51.20;;;;;;5074372;28;20044;-82
2023/04/21 11:46:20;;;;;;;9.45;4.70;;;23.50;51.30;;;;;;5055676;28;20140;-80
2023/04/21 11:48:56;;;;;;;7.30;4.95;;;23.50;49.50;;;;;;5074238;28;20033;-81
2023/04/21 11:51:22;;;;;;;6.28;4.38;;;23.50;50.30;;;;;;5077841;28;20060;-80
2023/04/21 11:53:47;;;;;;;7.82;4.70;;;23.40;49.80;;;;;;5075681;28;20032;-80
2023/04/21 11:56:20;;;;;;;7.45;4.40;;;23.30;49.70;;;;;;5074936;28;20043;-79
2023/04/21 11:58:49;;;;;;;7.50;4.72;;;23.40;50.30;;;;;;5075142;28;20486;-81
2023/04/21 12:01:16;;;;;;;33.70;8.45;;;23.50;50.10;;;;;;5074712;28;20067;-82
2023/04/21 12:03:48;;;;;;;10.63;4.68;;;23.50;49.30;;;;;;5074895;28;20036;-79
2023/04/21 12:06:20;;;;;;;6.13;4.18;;;23.60;49.60;;;;;;5075002;28;20081;-81
2023/04/21 12:08:46;;;;;;;9.95;4.60;;;23.70;49.30;;;;;;5074997;28;20033;-80
2023/04/21 12:11:14;;;;;;;8.40;4.75;;;23.60;48.90;;;;;;5074666;28;20029;-81
2023/04/21 12:13:40;;;;;;;8.95;4.90;;;23.60;48.60;;;;;;5074499;28;20082;-80
2023/04/21 12:16:06;;;;;;;7.63;3.88;;;23.60;48.10;;;;;;5074865;28;20498;-81
2023/04/21 12:18:32;;;;;;;7.68;3.78;;;23.60;47.80;;;;;;5076269;28;20091;-79
2023/04/21 12:21:01;;;;;;;16.33;5.35;;;23.60;47.90;;;;;;5075605;28;20393;-81
2023/04/21 12:23:26;;;;;;;18.05;5.47;;;23.70;48.10;;;;;;5075335;28;20036;-81
2023/04/21 12:25:52;;;;;;;11.63;4.90;;;23.70;47.70;;;;;;5074418;28;20505;-80
2023/04/21 12:28:18;;;;;;;16.95;4.65;;;23.90;47.60;;;;;;5074402;28;20029;-79
2023/04/21 12:30:44;;;;;;;6.22;3.50;;;24.10;47.80;;;;;;5074356;28;20044;-79
2023/04/21 12:33:10;;;;;;;7.68;3.80;;;24.20;47.60;;;;;;5074179;28;20037;-79